createdAt,value
2023-01-29T00:00:10.410Z,5.97
2023-01-29T00:02:38.352Z,6.13
2023-01-29T00:05:26.080Z,5.83
2023-01-29T00:07:56.557Z,6.17
2023-01-29T00:10:26.045Z,5.30
2023-01-29T00:12:53.449Z,5.63
2023-01-29T00:15:21.031Z,6.70
2023-01-29T00:17:48.483Z,6.17
2023-01-29T00:20:16.809Z,7.07
2023-01-29T00:22:44.478Z,6.20
2023-01-29T00:25:12.268Z,7.17
2023-01-29T00:27:39.805Z,7.57
2023-01-29T00:30:16.623Z,6.97
2023-01-29T00:32:44.205Z,8.53
2023-01-29T00:35:12.557Z,7.63
2023-01-29T00:37:40.069Z,8.40
2023-01-29T00:40:09.401Z,8.17
2023-01-29T00:42:55.584Z,10.37
2023-01-29T00:45:23.030Z,8.80
2023-01-29T00:47:50.507Z,7.67
2023-01-29T00:50:18.510Z,8.70
2023-01-29T00:52:46.340Z,8.70
2023-01-29T00:55:13.862Z,8.30
2023-01-29T00:57:41.449Z,10.13
2023-01-29T01:00:14.663Z,9.80
2023-01-29T01:03:00.850Z,9.97
2023-01-29T01:05:28.877Z,10.87
2023-01-29T01:07:58.848Z,11.37
2023-01-29T01:10:32.859Z,11.20
2023-01-29T01:13:04.324Z,12.73
2023-01-29T01:15:38.277Z,13.17
2023-01-29T01:18:06.141Z,10.87
2023-01-29T01:20:35.789Z,11.23
2023-01-29T01:23:03.372Z,10.47
2023-01-29T01:25:31.196Z,10.40
2023-01-29T01:28:03.144Z,8.97
2023-01-29T01:30:30.892Z,10.83
2023-01-29T01:32:58.348Z,10.23
2023-01-29T01:35:25.771Z,10.43
2023-01-29T01:37:53.221Z,10.40
2023-01-29T01:40:25.750Z,12.57
2023-01-29T01:42:59.262Z,10.53
2023-01-29T01:45:37.416Z,11.03
2023-01-29T01:48:08.893Z,11.03
2023-01-29T01:50:52.589Z,11.17
2023-01-29T01:53:29.129Z,13.30
2023-01-29T01:56:01.569Z,12.30
2023-01-29T01:58:39.955Z,13.73
2023-01-29T02:01:09.700Z,11.37
2023-01-29T02:04:05.432Z,11.20
2023-01-29T02:06:52.688Z,13.40
2023-01-29T02:09:36.538Z,12.33
2023-01-29T02:12:13.478Z,12.33
2023-01-29T02:14:42.698Z,9.57
2023-01-29T02:17:19.550Z,11.23
2023-01-29T02:20:20.915Z,9.80
2023-01-29T02:23:23.522Z,11.57
2023-01-29T02:26:05.144Z,8.47
2023-01-29T02:28:52.935Z,10.03
2023-01-29T02:31:35.342Z,10.77
2023-01-29T02:35:06.182Z,9.50
2023-01-29T02:38:18.218Z,9.63
2023-01-29T02:40:52.373Z,9.53
2023-01-29T02:43:48.375Z,9.93
2023-01-29T02:46:42.682Z,10.97
2023-01-29T02:49:21.844Z,8.93
2023-01-29T02:52:09.896Z,10.70
2023-01-29T02:54:53.911Z,9.83
2023-01-29T02:57:30.078Z,9.43
2023-01-29T03:00:19.238Z,10.00
2023-01-29T03:03:14.884Z,8.97
2023-01-29T03:06:22.457Z,9.40
2023-01-29T03:09:05.260Z,8.77
2023-01-29T03:11:42.379Z,10.67
2023-01-29T03:15:02.628Z,10.30
2023-01-29T03:17:48.212Z,9.93
2023-01-29T03:20:25.540Z,10.33
2023-01-29T03:23:01.971Z,10.50
2023-01-29T03:25:48.134Z,10.00
2023-01-29T03:28:37.107Z,9.70
2023-01-29T03:31:27.265Z,10.07
2023-01-29T03:34:01.341Z,9.23
2023-01-29T03:36:45.654Z,9.83
2023-01-29T03:39:14.983Z,9.27
2023-01-29T03:42:01.246Z,8.00
2023-01-29T03:45:05.389Z,10.10
2023-01-29T03:48:07.907Z,10.20
2023-01-29T03:51:04.775Z,11.20
2023-01-29T03:54:05.748Z,9.33
2023-01-29T03:57:15.627Z,8.13
2023-01-29T03:59:55.797Z,6.70
2023-01-29T04:02:34.673Z,8.10
2023-01-29T04:05:16.411Z,6.73
2023-01-29T04:07:45.527Z,8.47
2023-01-29T04:10:19.463Z,7.70
2023-01-29T04:13:10.864Z,7.77
2023-01-29T04:15:48.306Z,7.23
2023-01-29T04:18:16.105Z,7.37
2023-01-29T04:20:44.120Z,7.33
2023-01-29T04:23:26.528Z,8.00
2023-01-29T04:26:10.837Z,7.17
2023-01-29T04:29:12.726Z,8.37
2023-01-29T04:32:10.582Z,6.87
2023-01-29T04:35:01.733Z,6.90
2023-01-29T04:37:54.669Z,6.60
2023-01-29T04:40:48.191Z,7.00
2023-01-29T04:43:43.817Z,7.03
2023-01-29T04:46:18.834Z,7.87
2023-01-29T04:49:18.187Z,7.40
2023-01-29T04:52:09.625Z,7.33
2023-01-29T04:54:47.823Z,6.90
2023-01-29T04:57:43.499Z,7.10
2023-01-29T05:00:28.937Z,7.03
2023-01-29T05:02:57.846Z,6.73
2023-01-29T05:05:25.291Z,6.73
2023-01-29T05:07:53.961Z,5.83
2023-01-29T05:10:23.002Z,6.17
2023-01-29T05:13:01.071Z,6.63
2023-01-29T05:16:08.354Z,7.07
2023-01-29T05:18:36.692Z,6.53
2023-01-29T05:21:08.348Z,6.27
2023-01-29T05:23:36.657Z,7.77
2023-01-29T05:26:05.387Z,6.43
2023-01-29T05:28:33.260Z,6.33
2023-01-29T05:31:00.923Z,6.00
2023-01-29T05:33:31.675Z,5.43
2023-01-29T05:36:00.415Z,6.00
2023-01-29T05:38:28.038Z,6.20
2023-01-29T05:40:55.564Z,7.13
2023-01-29T05:43:25.453Z,7.17
2023-01-29T05:46:02.296Z,7.77
2023-01-29T05:48:32.252Z,7.27
2023-01-29T05:51:05.141Z,6.00
2023-01-29T05:53:33.540Z,6.70
2023-01-29T05:56:05.586Z,7.40
2023-01-29T05:58:34.591Z,7.63
2023-01-29T06:01:23.982Z,6.90
2023-01-29T06:03:51.786Z,8.60
2023-01-29T06:06:19.231Z,8.20
2023-01-29T06:08:47.041Z,8.10
2023-01-29T06:11:16.571Z,6.97
2023-01-29T06:13:45.048Z,8.03
2023-01-29T06:16:13.812Z,6.90
2023-01-29T06:18:42.140Z,7.30
2023-01-29T06:21:13.240Z,7.43
2023-01-29T06:23:41.311Z,8.00
2023-01-29T06:26:13.115Z,8.83
2023-01-29T06:28:41.602Z,7.27
2023-01-29T06:31:31.404Z,7.53
2023-01-29T06:33:58.374Z,7.47
2023-01-29T06:36:25.807Z,9.67
2023-01-29T06:38:53.238Z,7.00
2023-01-29T06:41:25.835Z,8.23
2023-01-29T06:43:53.576Z,7.67
2023-01-29T06:46:21.151Z,9.93
2023-01-29T06:48:48.688Z,9.20
2023-01-29T06:51:16.203Z,9.00
2023-01-29T06:53:46.008Z,9.60
2023-01-29T06:56:14.406Z,11.27
2023-01-29T06:58:43.668Z,8.97
2023-01-29T07:01:29.015Z,8.70
2023-01-29T07:04:00.487Z,8.00
2023-01-29T07:06:30.917Z,7.40
2023-01-29T07:08:58.433Z,8.10
2023-01-29T07:11:25.917Z,8.63
2023-01-29T07:13:53.405Z,8.67
2023-01-29T07:16:20.862Z,9.33
2023-01-29T07:18:48.319Z,19.77
2023-01-29T07:21:15.918Z,9.57
2023-01-29T07:23:43.550Z,9.23
2023-01-29T07:26:11.619Z,9.03
2023-01-29T07:28:40.300Z,13.47
2023-01-29T07:31:09.025Z,9.97
2023-01-29T07:33:36.503Z,12.60
2023-01-29T07:36:09.262Z,10.53
2023-01-29T07:38:36.715Z,9.73
2023-01-29T07:41:04.658Z,7.80
2023-01-29T07:43:32.086Z,7.93
2023-01-29T07:46:04.732Z,8.30
2023-01-29T07:48:32.475Z,8.03
2023-01-29T07:51:00.313Z,8.57
2023-01-29T07:53:29.031Z,8.70
2023-01-29T07:55:57.043Z,8.67
2023-01-29T07:58:24.844Z,9.10
2023-01-29T08:00:52.409Z,10.03
2023-01-29T08:03:20.997Z,9.17
2023-01-29T08:05:48.940Z,9.17
2023-01-29T08:08:16.650Z,10.27
2023-01-29T08:10:44.162Z,10.00
2023-01-29T08:13:11.568Z,8.73
2023-01-29T08:15:39.417Z,9.50
2023-01-29T08:18:07.124Z,8.57
2023-01-29T08:20:34.706Z,8.73
2023-01-29T08:23:09.410Z,11.07
2023-01-29T08:25:37.206Z,9.23
2023-01-29T08:28:05.150Z,9.30
2023-01-29T08:30:34.860Z,8.93
2023-01-29T08:33:04.549Z,8.57
2023-01-29T08:35:32.181Z,8.67
2023-01-29T08:38:03.508Z,8.90
2023-01-29T08:40:34.753Z,10.80
2023-01-29T08:43:06.993Z,9.03
2023-01-29T08:45:42.174Z,9.60
2023-01-29T08:48:10.317Z,9.63
2023-01-29T08:50:38.710Z,9.23
2023-01-29T08:53:09.077Z,9.33
2023-01-29T08:55:38.800Z,11.60
2023-01-29T08:58:11.879Z,8.93
2023-01-29T09:00:39.897Z,9.90
2023-01-29T09:03:08.387Z,11.30
2023-01-29T09:05:37.728Z,12.83
2023-01-29T09:08:06.702Z,10.83
2023-01-29T09:10:34.565Z,9.73
2023-01-29T09:13:02.183Z,10.57
2023-01-29T09:15:29.803Z,9.67
2023-01-29T09:17:57.400Z,9.57
2023-01-29T09:20:24.864Z,8.80
2023-01-29T09:22:53.840Z,10.03
2023-01-29T09:25:21.370Z,12.07
2023-01-29T09:27:48.823Z,10.13
2023-01-29T09:30:17.202Z,13.20
2023-01-29T09:32:53.200Z,13.87
2023-01-29T09:35:23.057Z,10.63
2023-01-29T09:37:52.370Z,12.57
2023-01-29T09:40:58.713Z,8.60
2023-01-29T09:43:53.473Z,17.57
2023-01-29T09:46:40.978Z,9.60
2023-01-29T09:49:26.775Z,12.90
2023-01-29T09:52:19.653Z,15.43
2023-01-29T09:55:03.293Z,10.67
2023-01-29T09:57:47.285Z,22.83
2023-01-29T10:00:39.804Z,10.50
2023-01-29T10:03:42.096Z,10.37
2023-01-29T10:06:37.672Z,10.10
2023-01-29T10:09:46.577Z,9.47
2023-01-29T10:12:38.387Z,10.93
2023-01-29T10:16:01.228Z,12.07
2023-01-29T10:18:53.945Z,10.23
2023-01-29T10:21:51.154Z,11.07
2023-01-29T10:24:43.162Z,8.47
2023-01-29T10:27:17.485Z,9.60
2023-01-29T10:29:47.726Z,10.07
2023-01-29T10:32:19.302Z,9.50
2023-01-29T10:35:00.081Z,11.37
2023-01-29T10:37:56.253Z,10.13
2023-01-29T10:41:30.965Z,9.20
2023-01-29T10:44:07.214Z,9.67
2023-01-29T10:47:01.972Z,12.33
2023-01-29T10:49:46.561Z,9.87
2023-01-29T10:52:50.182Z,10.13
2023-01-29T10:55:58.654Z,9.50
2023-01-29T10:58:46.794Z,11.53
2023-01-29T11:01:14.940Z,10.30
2023-01-29T11:03:42.621Z,9.57
2023-01-29T11:06:33.485Z,10.17
2023-01-29T11:09:11.113Z,9.80
2023-01-29T11:11:55.004Z,10.23
2023-01-29T11:14:28.779Z,8.83
2023-01-29T11:16:56.396Z,8.73
2023-01-29T11:19:40.508Z,8.97
2023-01-29T11:22:27.630Z,8.43
2023-01-29T11:25:32.842Z,9.80
2023-01-29T11:28:02.785Z,8.13
2023-01-29T11:30:38.624Z,9.20
2023-01-29T11:33:07.029Z,7.40
2023-01-29T11:35:35.693Z,9.83
2023-01-29T11:38:23.378Z,7.63
2023-01-29T11:40:51.578Z,8.47
2023-01-29T11:43:26.900Z,8.27
2023-01-29T11:45:59.175Z,9.37
2023-01-29T11:48:50.301Z,8.87
2023-01-29T11:51:28.974Z,9.33
2023-01-29T11:54:04.827Z,8.17
2023-01-29T11:56:42.333Z,8.47
2023-01-29T11:59:37.515Z,9.40
2023-01-29T12:02:37.282Z,11.37
2023-01-29T12:05:20.340Z,9.13
2023-01-29T12:07:51.561Z,10.10
2023-01-29T12:10:39.768Z,10.83
2023-01-29T12:13:09.980Z,9.27
2023-01-29T12:15:42.442Z,12.60
2023-01-29T12:18:43.643Z,13.23
2023-01-29T12:21:35.428Z,10.50
2023-01-29T12:24:52.618Z,11.90
2023-01-29T12:28:09.552Z,9.93
2023-01-29T12:30:51.087Z,10.20
2023-01-29T12:33:50.480Z,9.87
2023-01-29T12:37:00.948Z,9.07
2023-01-29T12:39:28.475Z,9.93
2023-01-29T12:42:04.904Z,10.17
2023-01-29T12:44:42.674Z,10.50
2023-01-29T12:47:23.631Z,10.00
2023-01-29T12:49:56.614Z,11.27
2023-01-29T12:52:42.049Z,9.53
2023-01-29T12:55:21.128Z,11.97
2023-01-29T12:58:11.913Z,9.70
2023-01-29T13:00:44.191Z,11.83
2023-01-29T13:03:25.660Z,10.33
2023-01-29T13:05:58.295Z,9.73
2023-01-29T13:08:36.390Z,11.53
2023-01-29T13:11:15.638Z,10.50
2023-01-29T13:13:55.277Z,9.93
2023-01-29T13:16:30.734Z,10.10
2023-01-29T13:19:06.522Z,10.40
2023-01-29T13:21:41.707Z,9.67
2023-01-29T13:24:17.652Z,8.77
2023-01-29T13:26:47.596Z,8.73
2023-01-29T13:29:33.822Z,8.90
2023-01-29T13:32:04.787Z,8.80
2023-01-29T13:34:37.072Z,9.60
2023-01-29T13:37:36.722Z,9.37
2023-01-29T13:40:07.637Z,8.90
2023-01-29T13:42:45.689Z,9.80
2023-01-29T13:45:56.983Z,9.07
2023-01-29T13:48:32.182Z,8.27
2023-01-29T13:51:05.119Z,9.40
2023-01-29T13:53:38.771Z,7.30
2023-01-29T13:56:34.028Z,7.90
2023-01-29T13:59:03.465Z,8.50
2023-01-29T14:01:59.937Z,8.77
2023-01-29T14:04:31.146Z,9.03
2023-01-29T14:07:00.558Z,9.30
2023-01-29T14:09:40.126Z,8.97
2023-01-29T14:12:22.433Z,9.50
2023-01-29T14:14:59.667Z,9.03
2023-01-29T14:17:27.854Z,9.37
2023-01-29T14:20:19.706Z,9.37
2023-01-29T14:22:57.242Z,9.17
2023-01-29T14:25:31.726Z,9.50
2023-01-29T14:28:02.101Z,9.17
2023-01-29T14:30:35.161Z,9.63
2023-01-29T14:33:03.357Z,9.53
2023-01-29T14:35:34.230Z,9.33
2023-01-29T14:38:06.048Z,9.87
2023-01-29T14:40:37.009Z,10.17
2023-01-29T14:43:09.318Z,11.50
2023-01-29T14:45:44.805Z,10.57
2023-01-29T14:48:12.162Z,9.83
2023-01-29T14:50:49.638Z,11.47
2023-01-29T14:54:04.577Z,10.50
2023-01-29T14:56:47.468Z,11.03
2023-01-29T14:59:33.626Z,11.20
2023-01-29T15:02:38.309Z,12.13
2023-01-29T15:05:14.074Z,13.43
2023-01-29T15:07:48.915Z,12.23
2023-01-29T15:10:44.491Z,13.00
2023-01-29T15:13:37.742Z,11.57
2023-01-29T15:16:24.807Z,13.43
2023-01-29T15:18:57.854Z,12.53
2023-01-29T15:21:25.342Z,13.60
2023-01-29T15:24:06.845Z,14.33
2023-01-29T15:26:36.517Z,13.57
2023-01-29T15:29:06.052Z,11.93
2023-01-29T15:31:35.596Z,11.70
2023-01-29T15:34:07.354Z,15.30
2023-01-29T15:36:37.098Z,12.57
2023-01-29T15:39:25.181Z,13.70
2023-01-29T15:42:12.663Z,12.53
2023-01-29T15:44:46.216Z,15.17
2023-01-29T15:47:15.019Z,18.27
2023-01-29T15:49:43.269Z,15.50
2023-01-29T15:52:20.741Z,15.10
2023-01-29T15:54:48.474Z,14.80
2023-01-29T15:57:34.461Z,15.90
2023-01-29T16:00:02.983Z,14.33
2023-01-29T16:02:36.651Z,17.00
2023-01-29T16:05:10.939Z,15.47
2023-01-29T16:07:38.533Z,14.90
2023-01-29T16:10:07.233Z,15.33
2023-01-29T16:12:35.511Z,15.20
2023-01-29T16:15:04.873Z,16.93
2023-01-29T16:17:38.159Z,15.50
2023-01-29T16:20:29.742Z,14.27
2023-01-29T16:22:57.209Z,15.97
2023-01-29T16:25:24.808Z,21.50
2023-01-29T16:27:52.587Z,20.00
2023-01-29T16:30:20.343Z,16.93
2023-01-29T16:32:47.897Z,16.07
2023-01-29T16:35:17.765Z,15.90
2023-01-29T16:37:50.761Z,14.23
2023-01-29T16:40:33.422Z,13.73
2023-01-29T16:43:45.996Z,16.40
2023-01-29T16:46:39.190Z,16.23
2023-01-29T16:49:31.353Z,15.93
2023-01-29T16:52:19.486Z,17.80
2023-01-29T16:54:46.903Z,17.77
2023-01-29T16:57:25.636Z,17.13
2023-01-29T16:59:57.788Z,15.27
2023-01-29T17:02:28.637Z,16.97
2023-01-29T17:05:01.981Z,15.67
2023-01-29T17:07:31.007Z,16.53
2023-01-29T17:10:04.241Z,16.90
2023-01-29T17:12:33.748Z,15.93
2023-01-29T17:15:06.394Z,16.67
2023-01-29T17:17:36.338Z,14.77
2023-01-29T17:20:16.209Z,15.90
2023-01-29T17:22:44.972Z,17.07
2023-01-29T17:25:17.127Z,16.23
2023-01-29T17:27:51.717Z,14.30
2023-01-29T17:30:22.896Z,15.43
2023-01-29T17:32:50.475Z,15.47
2023-01-29T17:35:18.565Z,15.47
2023-01-29T17:37:46.260Z,16.07
2023-01-29T17:40:43.338Z,14.90
2023-01-29T17:43:12.052Z,14.53
2023-01-29T17:45:40.901Z,15.27
2023-01-29T17:48:20.741Z,15.20
2023-01-29T17:50:53.504Z,16.20
2023-01-29T17:53:24.889Z,17.03
2023-01-29T17:55:53.997Z,16.23
2023-01-29T17:58:28.141Z,16.00
2023-01-29T18:00:56.200Z,14.93
2023-01-29T18:03:23.721Z,15.23
2023-01-29T18:05:51.370Z,15.67
2023-01-29T18:08:33.388Z,13.83
2023-01-29T18:11:01.335Z,15.47
2023-01-29T18:13:29.295Z,15.23
2023-01-29T18:15:56.808Z,14.03
2023-01-29T18:18:25.046Z,13.43
2023-01-29T18:20:52.536Z,13.40
2023-01-29T18:23:19.984Z,14.60
2023-01-29T18:25:47.719Z,13.37
2023-01-29T18:28:18.665Z,15.97
2023-01-29T18:30:47.678Z,13.50
2023-01-29T18:33:16.877Z,13.60
2023-01-29T18:35:45.799Z,13.50
2023-01-29T18:38:13.281Z,13.00
2023-01-29T18:40:40.763Z,12.97
2023-01-29T18:43:08.425Z,16.53
2023-01-29T18:45:36.613Z,12.47
2023-01-29T18:48:05.226Z,13.07
2023-01-29T18:50:33.498Z,13.13
2023-01-29T18:53:01.263Z,11.57
2023-01-29T18:55:28.709Z,12.77
2023-01-29T18:58:27.779Z,13.53
2023-01-29T19:00:45.419Z,11.60
2023-01-29T19:03:13.174Z,12.63
2023-01-29T19:05:40.661Z,12.13
2023-01-29T19:08:08.439Z,10.90
2023-01-29T19:10:36.089Z,11.00
2023-01-29T19:13:05.746Z,11.47
2023-01-29T19:15:34.754Z,11.93
2023-01-29T19:18:02.873Z,10.47
2023-01-29T19:20:30.667Z,11.60
2023-01-29T19:22:58.175Z,11.93
2023-01-29T19:25:25.727Z,9.73
2023-01-29T19:27:53.272Z,13.23
2023-01-29T19:30:20.851Z,10.70
2023-01-29T19:32:48.595Z,13.13
2023-01-29T19:35:16.318Z,11.13
2023-01-29T19:37:43.969Z,10.13
2023-01-29T19:40:11.906Z,10.30
2023-01-29T19:42:39.953Z,10.07
2023-01-29T19:45:08.536Z,11.07
2023-01-29T19:47:43.706Z,9.90
2023-01-29T19:50:12.169Z,11.07
2023-01-29T19:52:50.734Z,10.80
2023-01-29T19:55:20.554Z,9.23
2023-01-29T19:57:48.654Z,10.17
2023-01-29T20:00:17.679Z,9.03
2023-01-29T20:02:45.602Z,9.63
2023-01-29T20:05:17.352Z,10.30
2023-01-29T20:07:45.174Z,10.73
2023-01-29T20:10:17.789Z,10.37
2023-01-29T20:12:46.550Z,11.27
2023-01-29T20:15:15.053Z,11.23
2023-01-29T20:17:45.663Z,10.80
2023-01-29T20:20:13.342Z,12.73
2023-01-29T20:22:40.781Z,14.43
2023-01-29T20:25:08.979Z,14.47
2023-01-29T20:27:36.670Z,14.53
2023-01-29T20:30:04.668Z,14.70
2023-01-29T20:32:33.102Z,16.07
2023-01-29T20:35:00.545Z,16.83
2023-01-29T20:37:28.020Z,16.73
2023-01-29T20:39:55.455Z,18.83
2023-01-29T20:42:22.914Z,19.87
2023-01-29T20:44:50.365Z,17.97
2023-01-29T20:47:17.823Z,20.57
2023-01-29T20:49:45.307Z,18.77
2023-01-29T20:52:12.857Z,17.13
2023-01-29T20:54:40.421Z,17.80
2023-01-29T20:57:08.144Z,19.53
2023-01-29T20:59:35.547Z,17.47
2023-01-29T21:02:03.374Z,18.90
2023-01-29T21:04:31.703Z,17.50
2023-01-29T21:06:59.167Z,18.90
2023-01-29T21:09:26.693Z,18.43
2023-01-29T21:11:54.200Z,17.53
2023-01-29T21:14:21.672Z,17.37
2023-01-29T21:16:49.513Z,21.37
2023-01-29T21:19:17.131Z,25.33
2023-01-29T21:21:44.574Z,24.30
2023-01-29T21:24:13.177Z,25.03
2023-01-29T21:26:41.064Z,26.23
2023-01-29T21:29:11.115Z,24.80
2023-01-29T21:31:38.595Z,24.37
2023-01-29T21:34:06.560Z,26.17
2023-01-29T21:36:36.307Z,27.87
2023-01-29T21:39:17.518Z,29.30
2023-01-29T21:42:04.609Z,29.53
2023-01-29T21:44:33.628Z,27.50
2023-01-29T21:47:01.167Z,26.70
2023-01-29T21:49:28.657Z,25.70
2023-01-29T21:51:56.074Z,26.67
2023-01-29T21:54:23.639Z,23.23
2023-01-29T21:56:51.063Z,23.20
2023-01-29T21:59:18.603Z,23.80
2023-01-29T22:01:46.053Z,25.10
2023-01-29T22:04:15.860Z,21.47
2023-01-29T22:06:43.506Z,23.87
2023-01-29T22:09:10.885Z,24.40
2023-01-29T22:11:38.509Z,23.53
2023-01-29T22:14:05.955Z,26.97
2023-01-29T22:16:33.664Z,23.90
2023-01-29T22:19:01.356Z,22.67
2023-01-29T22:21:28.797Z,20.87
2023-01-29T22:23:56.312Z,21.13
2023-01-29T22:26:23.763Z,21.77
2023-01-29T22:28:51.254Z,22.73
2023-01-29T22:31:18.645Z,20.90
2023-01-29T22:33:46.057Z,19.17
2023-01-29T22:36:13.596Z,19.03
2023-01-29T22:38:43.416Z,19.57
2023-01-29T22:41:11.629Z,19.40
2023-01-29T22:43:39.483Z,20.77
2023-01-29T22:46:11.299Z,21.27
2023-01-29T22:48:38.839Z,19.60
2023-01-29T22:51:13.081Z,17.47
2023-01-29T22:53:49.481Z,18.27
2023-01-29T22:56:18.912Z,18.80
2023-01-29T22:58:51.230Z,16.03
2023-01-29T23:01:25.066Z,16.53
2023-01-29T23:03:52.981Z,17.03
2023-01-29T23:06:24.052Z,15.90
2023-01-29T23:08:51.967Z,16.27
2023-01-29T23:11:21.722Z,17.67
2023-01-29T23:13:55.866Z,17.93
2023-01-29T23:16:27.977Z,16.73
2023-01-29T23:18:56.669Z,15.17
2023-01-29T23:21:25.706Z,16.43
2023-01-29T23:23:55.538Z,16.67
2023-01-29T23:26:41.486Z,15.57
2023-01-29T23:29:09.490Z,16.20
2023-01-29T23:31:37.031Z,15.23
2023-01-29T23:34:04.555Z,12.67
2023-01-29T23:36:32.711Z,14.37
2023-01-29T23:39:00.119Z,15.60
2023-01-29T23:41:27.509Z,15.00
2023-01-29T23:43:54.900Z,13.80
2023-01-29T23:46:22.411Z,14.37
2023-01-29T23:48:49.857Z,13.17
2023-01-29T23:51:17.442Z,12.33
2023-01-29T23:53:44.945Z,11.63
2023-01-29T23:56:12.569Z,13.43
2023-01-29T23:58:40.170Z,12.03
